Time;durP1;ratioP1;P1;durP2;ratioP2;P2;SDS_P1;SDS_P2;PMS_P1;PMS_P2;Temp;Humidity;BMP_temperature;BMP_pressure;BME280_temperature;BME280_humidity;BME280_pressure;Samples;Min_cycle;Max_cycle;Signal;HPM_P1;HPM_P2
2022/04/05 00:01:35;;;;;;;21.10;9.48;;;;;;;8.86;nan;100419.97;5052718;28;20041;-63
2022/04/05 00:04:00;;;;;;;25.92;9.00;;;;;;;8.01;nan;100282.75;5053863;28;20124;-63
2022/04/05 00:06:25;;;;;;;20.88;8.27;;;;;;;8.53;nan;100379.03;5052714;28;20040;-63
2022/04/05 00:08:51;;;;;;;19.60;8.52;;;;;;;8.53;nan;100372.94;5053927;28;20084;-63
2022/04/05 00:11:16;;;;;;;29.77;10.07;;;;;;;8.85;nan;100447.13;5052473;28;20215;-63
2022/04/05 00:13:41;;;;;;;21.35;8.25;;;;;;;8.73;nan;100429.13;5053704;28;20068;-63
2022/04/05 00:16:07;;;;;;;22.17;8.35;;;;;;;8.86;nan;100434.84;5052466;28;20036;-63
2022/04/05 00:18:32;;;;;;;28.40;8.57;;;;;;;8.83;nan;100434.94;5052813;28;20045;-63
2022/04/05 00:20:58;;;;;;;28.65;9.63;;;;;;;8.40;nan;100367.22;5052291;28;20032;-63
2022/04/05 00:23:23;;;;;;;23.83;8.68;;;;;;;8.77;nan;100429.91;5052137;28;20127;-63
2022/04/05 00:25:50;;;;;;;27.45;10.13;;;;;;;8.80;nan;100446.41;5053401;28;20025;-63
2022/04/05 00:28:15;;;;;;;25.52;8.90;;;;;;;8.78;nan;100436.88;5053364;28;20120;-63
2022/04/05 00:30:40;;;;;;;30.40;8.90;;;;;;;8.46;nan;100395.91;5053232;28;20430;-63
2022/04/05 00:33:06;;;;;;;26.80;8.88;;;;;;;8.76;nan;100438.66;5051888;28;20079;-63
2022/04/05 00:35:31;;;;;;;23.90;8.90;;;;;;;8.41;nan;100379.41;5051598;28;20319;-63
2022/04/05 00:37:56;;;;;;;35.78;10.45;;;;;;;8.70;nan;100441.50;5053205;28;20041;-64
2022/04/05 00:40:22;;;;;;;26.58;9.48;;;;;;;8.32;nan;100385.81;5053269;28;20059;-64
2022/04/05 00:42:47;;;;;;;28.17;9.48;;;;;;;8.64;nan;100439.06;5053325;28;20069;-63
2022/04/05 00:45:16;;;;;;;32.45;8.98;;;;;;;8.34;nan;100398.88;5053186;28;20130;-63
2022/04/05 00:47:44;;;;;;;33.80;9.73;;;;;;;8.26;nan;100385.94;5052653;28;20075;-63
2022/04/05 00:50:10;;;;;;;25.73;8.90;;;;;;;8.18;nan;100381.84;5052910;28;20025;-63
2022/04/05 00:52:36;;;;;;;29.92;9.07;;;;;;;8.53;nan;100441.13;5051720;28;20060;-63
2022/04/05 00:55:02;;;;;;;32.33;9.45;;;;;;;8.39;nan;100434.56;5052792;28;20118;-63
2022/04/05 00:57:28;;;;;;;32.90;10.02;;;;;;;8.44;nan;100434.41;5052733;28;20033;-63
2022/04/05 00:59:59;;;;;;;27.73;8.52;;;;;;;8.09;nan;100385.59;5051498;28;20120;-62
2022/04/05 01:02:27;;;;;;;27.67;8.82;;;;;;;8.12;nan;100393.38;5051270;28;20095;-62
2022/04/05 01:04:53;;;;;;;27.75;9.35;;;;;;;8.46;nan;100446.56;5052634;28;20048;-63
2022/04/05 01:07:22;;;;;;;32.47;8.98;;;;;;;8.10;nan;100400.44;5051436;28;20474;-63
2022/04/05 01:09:53;;;;;;;30.70;9.15;;;;;;;8.45;nan;100457.97;5052552;28;20063;-63
2022/04/05 01:12:19;;;;;;;31.98;11.40;;;;;;;8.38;nan;100445.94;5052606;28;20469;-62
2022/04/05 01:14:45;;;;;;;30.50;9.90;;;;;;;8.36;nan;100457.38;5052715;28;20473;-63
2022/04/05 01:17:10;;;;;;;34.22;11.38;;;;;;;8.00;nan;100388.47;5052415;28;20094;-63
2022/04/05 01:19:36;;;;;;;34.80;12.50;;;;;;;8.33;nan;100454.84;5051259;28;20041;-63
2022/04/05 01:22:02;;;;;;;34.10;12.23;;;;;;;8.36;nan;100460.00;5052534;28;20037;-63
2022/04/05 01:24:27;;;;;;;40.65;14.00;;;;;;;8.29;nan;100455.88;5052329;28;20531;-63
2022/04/05 01:26:55;;;;;;;34.53;12.85;;;;;;;7.84;nan;100381.97;5052151;28;20037;-63
2022/04/05 01:29:22;;;;;;;40.22;14.73;;;;;;;7.86;nan;100395.88;5050880;28;20059;-63
2022/04/05 01:31:49;;;;;;;31.20;12.70;;;;;;;8.24;nan;100455.09;5051298;28;20044;-62
2022/04/05 01:34:17;;;;;;;32.50;13.85;;;;;;;7.91;nan;100402.72;5052572;28;20409;-63
2022/04/05 01:36:54;;;;;;;32.70;13.23;;;;;;;7.86;nan;100388.88;5052311;28;20090;-63
2022/04/05 01:39:22;;;;;;;28.08;12.68;;;;;;;8.17;nan;100446.53;5052539;28;20033;-63
2022/04/05 01:42:02;;;;;;;28.60;12.45;;;;;;;8.04;nan;100425.97;5050994;28;20389;-63
2022/04/05 01:44:29;;;;;;;30.63;11.25;;;;;;;8.19;nan;100452.59;5052514;28;20036;-64
2022/04/05 01:46:55;;;;;;;26.73;11.00;;;;;;;8.17;nan;100448.31;5051430;28;20029;-63
2022/04/05 01:49:20;;;;;;;22.70;10.55;;;;;;;8.15;nan;100450.97;5051316;28;20431;-63
2022/04/05 01:51:46;;;;;;;23.13;9.30;;;;;;;7.76;nan;100378.72;5052421;28;20531;-63
2022/04/05 01:54:13;;;;;;;20.70;9.43;;;;;;;7.79;nan;100384.72;5034453;28;20060;-63
2022/04/05 01:56:49;;;;;;;18.13;8.88;;;;;;;8.11;nan;100444.09;5050903;28;20043;-63
2022/04/05 01:59:20;;;;;;;26.63;9.73;;;;;;;8.07;nan;100441.59;5052464;28;20102;-64
2022/04/05 02:01:46;;;;;;;21.95;9.15;;;;;;;8.10;nan;100445.00;5050769;28;20072;-63
2022/04/05 02:04:12;;;;;;;24.83;9.88;;;;;;;8.08;nan;100438.09;5052147;28;20057;-63
2022/04/05 02:06:38;;;;;;;29.98;10.65;;;;;;;8.07;nan;100428.50;5052074;28;20366;-64
2022/04/05 02:09:04;;;;;;;34.92;11.55;;;;;;;7.79;nan;100389.94;5050887;28;20040;-63
2022/04/05 02:11:29;;;;;;;28.48;11.55;;;;;;;7.87;nan;100395.00;5052356;28;20033;-64
2022/04/05 02:13:54;;;;;;;47.75;14.07;;;;;;;8.16;nan;100436.97;5052214;28;20429;-64
2022/04/05 02:16:20;;;;;;;34.67;12.82;;;;;;;8.12;nan;100423.97;5052181;28;20041;-63
2022/04/05 02:18:45;;;;;;;41.00;14.52;;;;;;;8.20;nan;100438.56;5052022;28;20044;-63
2022/04/05 02:21:11;;;;;;;34.35;14.57;;;;;;;7.98;nan;100395.53;5052102;28;20043;-63
2022/04/05 02:23:36;;;;;;;41.60;15.52;;;;;;;8.23;nan;100425.38;5050692;28;20041;-64
2022/04/05 02:26:02;;;;;;;39.53;15.25;;;;;;;8.25;nan;100435.84;5052110;28;20043;-63
2022/04/05 02:28:27;;;;;;;46.80;18.88;;;;;;;8.29;nan;100419.16;5052084;28;20296;-64
2022/04/05 02:30:53;;;;;;;41.72;17.58;;;;;;;8.25;nan;100415.72;5052006;28;20482;-62
2022/04/05 02:33:20;;;;;;;33.45;16.98;;;;;;;8.05;nan;100370.03;5052085;28;20486;-63
2022/04/05 02:35:45;;;;;;;43.72;19.65;;;;;;;8.44;nan;100434.41;5051703;28;20056;-63
2022/04/05 02:38:11;;;;;;;40.15;18.77;;;;;;;8.06;nan;100372.59;5051453;28;20044;-63
2022/04/05 02:40:36;;;;;;;36.00;18.23;;;;;;;8.41;nan;100418.75;5050548;28;20033;-63
2022/04/05 02:43:03;;;;;;;37.47;18.40;;;;;;;8.50;nan;100426.34;5053135;28;20494;-63
2022/04/05 02:45:29;;;;;;;37.50;19.83;;;;;;;8.52;nan;100428.94;5055833;28;20049;-63
2022/04/05 02:47:54;;;;;;;30.77;18.40;;;;;;;8.25;nan;100379.00;5055702;28;20116;-63
2022/04/05 02:50:20;;;;;;;31.70;18.75;;;;;;;8.58;nan;100432.22;5055610;28;20036;-62
2022/04/05 02:52:45;;;;;;;31.27;18.65;;;;;;;8.57;nan;100429.66;5055447;28;20040;-63
2022/04/05 02:55:11;;;;;;;30.10;18.73;;;;;;;8.04;nan;100327.22;5054547;28;20417;-63
2022/04/05 02:57:40;;;;;;;30.67;18.30;;;;;;;8.27;nan;100360.59;5055493;28;20595;-63
2022/04/05 03:00:11;;;;;;;26.73;16.98;;;;;;;8.42;nan;100382.00;5054365;28;20127;-63
2022/04/05 03:02:37;;;;;;;28.90;18.33;;;;;;;8.73;nan;100429.13;5055672;28;20044;-63
2022/04/05 03:05:05;;;;;;;30.58;17.33;;;;;;;8.69;nan;100418.78;5054271;28;20551;-63
2022/04/05 03:07:30;;;;;;;28.02;16.88;;;;;;;8.34;nan;100354.31;5055223;28;20040;-63
2022/04/05 03:09:55;;;;;;;27.45;17.60;;;;;;;8.73;nan;100426.50;5055327;28;20036;-63
2022/04/05 03:12:21;;;;;;;26.75;18.63;;;;;;;8.38;nan;100363.78;5055444;28;20116;-63
2022/04/05 03:14:46;;;;;;;32.90;18.80;;;;;;;8.65;nan;100412.78;5055158;28;20192;-63
2022/04/05 03:17:12;;;;;;;31.58;18.02;;;;;;;8.62;nan;100402.38;5053943;28;20044;-63
2022/04/05 03:19:38;;;;;;;33.42;18.67;;;;;;;8.77;nan;100425.50;5055147;28;20092;-62
2022/04/05 03:22:05;;;;;;;36.83;20.13;;;;;;;8.78;nan;100422.00;5054978;28;20037;-62
2022/04/05 03:24:31;;;;;;;27.55;18.25;;;;;;;8.67;nan;100400.44;5054982;28;20036;-62
2022/04/05 03:26:57;;;;;;;31.55;19.05;;;;;;;8.79;nan;100414.94;5054994;28;20041;-63
2022/04/05 03:29:22;;;;;;;37.97;18.60;;;;;;;8.77;nan;100415.00;5055125;28;20109;-62
2022/04/05 03:31:48;;;;;;;29.70;18.13;;;;;;;8.79;nan;100412.31;5054890;28;20393;-62
2022/04/05 03:34:14;;;;;;;34.20;18.48;;;;;;;8.77;nan;100403.66;5054806;28;20517;-62
2022/04/05 03:36:41;;;;;;;28.30;17.00;;;;;;;8.71;nan;100402.09;5054756;28;20065;-62
2022/04/05 03:39:07;;;;;;;26.20;17.50;;;;;;;8.74;nan;100404.63;5053506;28;20037;-62
2022/04/05 03:41:32;;;;;;;27.98;17.05;;;;;;;8.76;nan;100407.16;5054807;28;20029;-62
2022/04/05 03:43:58;;;;;;;29.63;17.35;;;;;;;8.72;nan;100401.19;5054898;28;20033;-62
2022/04/05 03:46:23;;;;;;;24.90;16.67;;;;;;;8.34;nan;100339.44;5054731;28;20439;-62
2022/04/05 03:48:49;;;;;;;30.85;17.10;;;;;;;8.76;nan;100402.78;5053309;28;20423;-63
2022/04/05 03:51:14;;;;;;;32.45;17.63;;;;;;;8.76;nan;100415.91;5054981;28;20041;-63
2022/04/05 03:53:39;;;;;;;35.45;17.92;;;;;;;8.76;nan;100408.03;5053556;28;20385;-63
2022/04/05 03:56:05;;;;;;;38.15;17.42;;;;;;;8.76;nan;100409.78;5054438;28;20041;-63
2022/04/05 03:58:30;;;;;;;36.78;18.25;;;;;;;8.77;nan;100401.88;5053335;28;20029;-63
2022/04/05 04:00:55;;;;;;;36.30;18.77;;;;;;;8.78;nan;100421.13;5054500;28;20043;-63
2022/04/05 04:03:20;;;;;;;31.75;16.58;;;;;;;8.79;nan;100413.19;5054400;28;20496;-63
2022/04/05 04:05:46;;;;;;;38.15;18.60;;;;;;;8.47;nan;100353.00;5054123;28;20533;-63
2022/04/05 04:08:11;;;;;;;37.13;17.92;;;;;;;8.79;nan;100407.06;5054475;28;20029;-63
2022/04/05 04:10:36;;;;;;;32.95;16.08;;;;;;;8.46;nan;100349.50;5054435;28;20041;-63
2022/04/05 04:13:02;;;;;;;33.72;15.07;;;;;;;8.79;nan;100410.56;5054049;28;20402;-63
2022/04/05 04:15:27;;;;;;;29.20;15.30;;;;;;;8.73;nan;100402.88;5054118;28;20037;-64
2022/04/05 04:17:52;;;;;;;34.42;16.17;;;;;;;8.79;nan;100399.19;5052526;28;20124;-63
2022/04/05 04:20:18;;;;;;;30.40;14.38;;;;;;;8.48;nan;100346.88;5054009;28;20033;-63
2022/04/05 04:22:43;;;;;;;28.77;13.13;;;;;;;8.49;nan;100348.59;5052762;28;20037;-63
2022/04/05 04:25:09;;;;;;;32.55;14.07;;;;;;;8.78;nan;100403.63;5053995;28;20521;-63
2022/04/05 04:27:34;;;;;;;32.28;15.18;;;;;;;8.57;nan;100367.56;5053954;28;20033;-63
2022/04/05 04:30:00;;;;;;;25.33;14.10;;;;;;;8.67;nan;100386.50;5053810;28;20037;-63
2022/04/05 04:32:26;;;;;;;28.73;12.77;;;;;;;8.78;nan;100393.13;5053784;28;20033;-63
2022/04/05 04:34:51;;;;;;;31.13;15.10;;;;;;;8.79;nan;100407.94;5053640;28;20052;-63
2022/04/05 04:37:17;;;;;;;31.40;13.95;;;;;;;8.81;nan;100405.28;5053538;28;20179;-63
2022/04/05 04:39:42;;;;;;;40.35;14.63;;;;;;;8.79;nan;100402.69;5053818;28;20036;-64
2022/04/05 04:42:08;;;;;;;27.13;13.93;;;;;;;8.51;nan;100346.75;5053830;28;20043;-64
2022/04/05 04:44:33;;;;;;;28.77;13.38;;;;;;;8.55;nan;100345.78;5053251;28;20041;-64
2022/04/05 04:46:58;;;;;;;25.25;12.63;;;;;;;8.84;nan;100413.06;5051958;28;20087;-63
2022/04/05 04:49:24;;;;;;;22.88;13.07;;;;;;;8.81;nan;100402.66;5052030;28;20116;-63
2022/04/05 04:51:50;;;;;;;27.95;13.27;;;;;;;8.53;nan;100352.81;5052392;28;20427;-63
2022/04/05 04:54:15;;;;;;;27.25;13.80;;;;;;;8.83;nan;100413.97;5052497;28;20112;-63
2022/04/05 04:56:41;;;;;;;25.23;11.57;;;;;;;8.93;nan;100412.78;5018955;28;20634;-63
2022/04/05 04:59:06;;;;;;;21.88;11.73;;;;;;;8.96;nan;100407.41;5053027;28;20473;-63
2022/04/05 05:01:31;;;;;;;20.35;11.50;;;;;;;8.97;nan;100415.22;5053360;28;20040;-64
2022/04/05 05:03:57;;;;;;;23.90;10.73;;;;;;;9.00;nan;100404.63;5053206;28;20382;-63
2022/04/05 05:06:22;;;;;;;21.23;10.40;;;;;;;8.98;nan;100409.09;5052785;28;20039;-63
2022/04/05 05:08:47;;;;;;;23.42;11.27;;;;;;;9.01;nan;100408.13;5051727;28;20033;-63
2022/04/05 05:11:13;;;;;;;17.92;10.70;;;;;;;8.74;nan;100356.50;5053234;28;20086;-63
2022/04/05 05:13:39;;;;;;;22.02;10.73;;;;;;;9.02;nan;100412.44;5052608;28;20056;-64
2022/04/05 05:16:04;;;;;;;18.27;10.27;;;;;;;9.11;nan;100427.91;5052726;28;20248;-64
2022/04/05 05:18:30;;;;;;;26.40;11.88;;;;;;;8.77;nan;100352.03;5052374;28;20048;-64
2022/04/05 05:20:55;;;;;;;18.58;10.10;;;;;;;8.81;nan;100366.78;5053117;28;20041;-63
2022/04/05 05:23:20;;;;;;;20.30;11.02;;;;;;;8.86;nan;100370.09;5052925;28;20029;-64
2022/04/05 05:25:47;;;;;;;16.17;9.38;;;;;;;9.17;nan;100419.81;5052880;28;20033;-64
2022/04/05 05:28:13;;;;;;;19.88;10.48;;;;;;;8.82;nan;100357.13;5051407;28;20044;-63
2022/04/05 05:30:38;;;;;;;18.77;9.45;;;;;;;9.16;nan;100418.13;5052755;28;20029;-63
2022/04/05 05:33:03;;;;;;;16.35;8.88;;;;;;;9.18;nan;100424.16;5051888;28;20049;-63
2022/04/05 05:35:29;;;;;;;23.67;10.48;;;;;;;9.16;nan;100412.00;5067799;28;20052;-63
2022/04/05 05:37:56;;;;;;;23.40;9.88;;;;;;;9.06;nan;100411.44;5034834;28;20473;-64
2022/04/05 05:40:21;;;;;;;16.70;9.45;;;;;;;9.18;nan;100418.06;5052758;28;20033;-64
2022/04/05 05:42:48;;;;;;;17.05;9.25;;;;;;;9.14;nan;100417.28;5050903;28;20032;-63
2022/04/05 05:45:14;;;;;;;17.00;9.63;;;;;;;8.73;nan;100353.03;5052564;28;20397;-64
2022/04/05 05:47:39;;;;;;;18.42;9.82;;;;;;;8.78;nan;100369.50;5052274;28;20029;-65
2022/04/05 05:50:05;;;;;;;17.27;9.32;;;;;;;9.17;nan;100432.94;5052848;28;20056;-64
2022/04/05 05:52:31;;;;;;;18.17;8.90;;;;;;;9.17;nan;100418.94;5052013;28;20086;-63
2022/04/05 05:54:56;;;;;;;19.25;8.48;;;;;;;9.22;nan;100432.81;5051901;28;20469;-64
2022/04/05 05:57:21;;;;;;;15.43;8.70;;;;;;;9.26;nan;100426.53;5050913;28;20029;-64
2022/04/05 05:59:47;;;;;;;16.17;9.00;;;;;;;9.27;nan;100433.50;5052377;28;20033;-65
2022/04/05 06:02:12;;;;;;;17.20;7.63;;;;;;;8.89;nan;100364.75;5050235;28;20459;-63
2022/04/05 06:04:53;;;;;;;12.93;8.32;;;;;;;9.24;nan;100434.47;5050972;28;20033;-64
2022/04/05 06:07:18;;;;;;;15.15;8.18;;;;;;;9.26;nan;100437.91;5049235;28;20037;-62
2022/04/05 06:09:44;;;;;;;11.98;7.55;;;;;;;9.30;nan;100433.41;5050507;28;20048;-64
2022/04/05 06:12:09;;;;;;;12.85;8.20;;;;;;;9.25;nan;100422.22;5051611;28;20033;-63
2022/04/05 06:14:35;;;;;;;14.57;7.43;;;;;;;8.98;nan;100366.22;5052007;28;20084;-64
2022/04/05 06:17:00;;;;;;;11.70;7.57;;;;;;;9.35;nan;100434.09;5049952;28;20036;-62
2022/04/05 06:19:25;;;;;;;12.18;7.20;;;;;;;9.36;nan;100433.22;5051996;28;20393;-63
2022/04/05 06:21:51;;;;;;;12.50;6.60;;;;;;;9.32;nan;100434.22;5052067;28;20393;-63
2022/04/05 06:24:16;;;;;;;9.50;6.78;;;;;;;9.41;nan;100434.75;5050901;28;20040;-63
2022/04/05 06:26:42;;;;;;;9.70;6.47;;;;;;;9.32;nan;100424.56;5051861;28;20084;-65
2022/04/05 06:29:07;;;;;;;14.27;6.53;;;;;;;9.39;nan;100436.59;5050703;28;20127;-64
2022/04/05 06:31:32;;;;;;;17.05;8.20;;;;;;;9.48;nan;100448.56;5050462;28;20051;-64
2022/04/05 06:33:58;;;;;;;13.15;6.30;;;;;;;9.05;nan;100380.84;5051620;28;20536;-64
2022/04/05 06:36:24;;;;;;;12.63;6.65;;;;;;;9.40;nan;100430.41;5050603;28;20108;-61
2022/04/05 06:38:49;;;;;;;16.50;6.95;;;;;;;9.47;nan;100447.69;5051647;28;20037;-63
2022/04/05 06:41:14;;;;;;;10.35;6.65;;;;;;;9.36;nan;100420.06;5051823;28;20405;-63
2022/04/05 06:43:40;;;;;;;10.70;5.85;;;;;;;9.57;nan;100441.19;5050505;28;20114;-63
2022/04/05 06:46:05;;;;;;;15.13;6.22;;;;;;;9.27;nan;100402.00;5051747;28;20366;-62
2022/04/05 06:48:31;;;;;;;10.93;5.95;;;;;;;9.64;nan;100441.84;5051871;28;20039;-63
2022/04/05 06:50:56;;;;;;;11.77;5.90;;;;;;;9.43;nan;100390.03;5051605;28;20033;-62
2022/04/05 06:53:22;;;;;;;12.93;5.82;;;;;;;9.82;nan;100446.47;5051592;28;20040;-62
2022/04/05 06:55:47;;;;;;;9.88;5.90;;;;;;;9.94;nan;100456.56;5051356;28;20450;-63
2022/04/05 06:58:13;;;;;;;10.75;5.30;;;;;;;9.66;nan;100419.00;5051515;28;20035;-62
2022/04/05 07:00:38;;;;;;;9.77;5.07;;;;;;;10.07;nan;100473.59;5051433;28;20036;-61
2022/04/05 07:03:04;;;;;;;19.27;5.95;;;;;;;10.09;nan;100463.91;5051516;28;20060;-62
2022/04/05 07:05:30;;;;;;;14.65;5.85;;;;;;;10.08;nan;100475.31;5050578;28;20029;-62
2022/04/05 07:07:56;;;;;;;10.38;5.22;;;;;;;9.95;nan;100450.34;5050338;28;20428;-62
2022/04/05 07:10:21;;;;;;;12.20;6.47;;;;;;;9.75;nan;100412.59;5051508;28;20468;-61
2022/04/05 07:12:47;;;;;;;9.88;5.13;;;;;;;10.12;nan;100476.94;5051438;28;20029;-61
2022/04/05 07:15:13;;;;;;;12.00;6.07;;;;;;;9.80;nan;100418.53;5050362;28;20037;-62
2022/04/05 07:17:39;;;;;;;15.07;5.78;;;;;;;10.27;nan;100495.72;5050340;28;20074;-61
2022/04/05 07:20:09;;;;;;;8.75;4.95;;;;;;;10.23;nan;100473.06;5050384;28;20040;-63
2022/04/05 07:22:36;;;;;;;14.57;5.55;;;;;;;10.26;nan;100480.84;5050379;28;20049;-61
2022/04/05 07:25:02;;;;;;;10.32;4.90;;;;;;;10.26;nan;100486.09;5050939;28;20056;-61
2022/04/05 07:27:29;;;;;;;10.13;4.95;;;;;;;10.21;nan;100482.78;5050901;28;20037;-60
2022/04/05 07:29:54;;;;;;;8.80;4.78;;;;;;;10.13;nan;100480.44;5052785;28;20120;-62
2022/04/05 07:32:19;;;;;;;11.90;5.28;;;;;;;9.87;nan;100435.78;5053237;28;20064;-61
2022/04/05 07:34:45;;;;;;;9.00;4.93;;;;;;;10.15;nan;100487.38;5054346;28;20128;-62
2022/04/05 07:37:11;;;;;;;11.30;4.65;;;;;;;10.14;nan;100490.91;5055089;28;20087;-61
2022/04/05 07:39:38;;;;;;;9.95;4.03;;;;;;;10.11;nan;100485.72;5054879;28;20040;-62
2022/04/05 07:42:07;;;;;;;8.95;4.95;;;;;;;10.13;nan;100490.94;5052879;28;20040;-63
2022/04/05 07:44:33;;;;;;;12.00;4.32;;;;;;;10.13;nan;100481.28;5053671;28;20029;-62
2022/04/05 07:46:58;;;;;;;9.48;4.28;;;;;;;9.52;nan;100372.19;5053614;28;20438;-61
2022/04/05 07:49:24;;;;;;;13.10;5.47;;;;;;;10.04;nan;100486.84;5053927;28;20033;-61
2022/04/05 07:51:49;;;;;;;8.30;4.90;;;;;;;10.01;nan;100476.44;5053494;28;20033;-62
2022/04/05 07:54:14;;;;;;;8.35;4.72;;;;;;;9.57;nan;100414.91;5052993;28;20033;-62
2022/04/05 07:56:40;;;;;;;13.00;5.22;;;;;;;9.94;nan;100466.19;5053423;28;20037;-62
2022/04/05 07:59:05;;;;;;;10.38;5.05;;;;;;;9.57;nan;100417.53;5053104;28;20076;-62
2022/04/05 08:01:30;;;;;;;12.63;5.10;;;;;;;9.92;nan;100475.94;5052964;28;20036;-62
2022/04/05 08:03:56;;;;;;;11.88;6.05;;;;;;;9.45;nan;100412.75;5051674;28;20371;-62
2022/04/05 08:06:23;;;;;;;10.68;6.30;;;;;;;9.84;nan;100470.06;5051423;28;20066;-62
2022/04/05 08:08:49;;;;;;;12.13;5.30;;;;;;;9.25;nan;100381.03;5052809;28;20413;-62
2022/04/05 08:11:15;;;;;;;12.40;5.50;;;;;;;10.00;nan;100495.78;5052767;28;20037;-62
2022/04/05 08:13:40;;;;;;;11.63;5.95;;;;;;;10.07;nan;100488.50;5053093;28;20029;-62
2022/04/05 08:16:05;;;;;;;10.93;5.43;;;;;;;10.11;nan;100479.59;5052516;28;20112;-62
2022/04/05 08:18:31;;;;;;;14.70;5.82;;;;;;;10.14;nan;100484.78;5051691;28;20486;-62
2022/04/05 08:20:56;;;;;;;9.85;5.00;;;;;;;10.13;nan;100489.19;5052757;28;20033;-63
2022/04/05 08:23:21;;;;;;;11.85;5.47;;;;;;;10.05;nan;100479.81;5052694;28;20029;-62
2022/04/05 08:25:47;;;;;;;13.07;5.50;;;;;;;10.05;nan;100480.69;5052419;28;20037;-62
2022/04/05 08:28:12;;;;;;;13.55;5.15;;;;;;;10.04;nan;100480.75;5051239;28;20456;-61
2022/04/05 08:30:38;;;;;;;13.60;5.32;;;;;;;9.99;nan;100495.81;5052827;28;20037;-63
2022/04/05 08:33:03;;;;;;;9.65;4.90;;;;;;;9.21;nan;100360.19;5051466;28;20546;-63
2022/04/05 08:35:29;;;;;;;12.05;5.15;;;;;;;9.62;nan;100438.44;5034441;28;20064;-62
2022/04/05 08:37:55;;;;;;;10.35;5.90;;;;;;;9.63;nan;100435.72;5068015;28;20124;-63
2022/04/05 08:40:24;;;;;;;11.40;4.68;;;;;;;9.62;nan;100438.44;5051274;28;20482;-62
2022/04/05 08:42:54;;;;;;;11.93;5.38;;;;;;;9.90;nan;100480.34;5052267;28;20033;-63
2022/04/05 08:45:21;;;;;;;7.70;4.43;;;;;;;9.99;nan;100490.56;5052162;28;20108;-62
2022/04/05 08:47:51;;;;;;;11.45;4.95;;;;;;;10.13;nan;100490.94;5051094;28;20057;-63
2022/04/05 08:50:25;;;;;;;8.63;5.15;;;;;;;10.26;nan;100496.63;5052119;28;20037;-62
2022/04/05 08:52:51;;;;;;;7.90;5.05;;;;;;;10.38;nan;100504.09;5052250;28;20056;-62
2022/04/05 08:55:17;;;;;;;13.25;5.43;;;;;;;10.15;nan;100449.69;5017831;28;20025;-64
2022/04/05 08:57:43;;;;;;;9.00;5.15;;;;;;;10.49;nan;100489.59;5052036;28;20064;-63
2022/04/05 09:00:10;;;;;;;6.78;4.97;;;;;;;10.50;nan;100488.72;5050643;28;20519;-63
2022/04/05 09:02:36;;;;;;;11.52;4.72;;;;;;;10.62;nan;100500.53;5052280;28;20033;-63
2022/04/05 09:05:02;;;;;;;12.20;5.32;;;;;;;10.65;nan;100529.38;5052053;28;20608;-63
2022/04/05 09:07:31;;;;;;;7.45;4.65;;;;;;;10.67;nan;100514.38;5050748;28;20373;-63
2022/04/05 09:10:14;;;;;;;8.73;4.15;;;;;;;10.44;nan;100452.09;5051971;28;20482;-63
2022/04/05 09:12:46;;;;;;;7.93;4.45;;;;;;;10.74;nan;100518.47;5051829;28;20175;-64
2022/04/05 09:15:21;;;;;;;6.60;4.10;;;;;;;10.81;nan;100519.09;5067459;28;20040;-62
2022/04/05 09:17:47;;;;;;;8.30;4.63;;;;;;;10.81;nan;100522.59;5051655;28;20041;-63
2022/04/05 09:20:14;;;;;;;9.63;4.25;;;;;;;10.91;nan;100515.22;5050816;28;20040;-62
2022/04/05 09:22:40;;;;;;;9.27;4.78;;;;;;;10.94;nan;100529.13;5050554;28;20033;-63
2022/04/05 09:25:06;;;;;;;9.93;5.50;;;;;;;11.05;nan;100526.06;5050960;28;20037;-62
2022/04/05 09:27:46;;;;;;;11.35;4.53;;;;;;;11.16;nan;100515.97;5050140;28;20495;-61
2022/04/05 09:30:13;;;;;;;14.80;4.30;;;;;;;11.11;nan;100525.84;5049875;28;20444;-62
2022/04/05 09:32:46;;;;;;;7.50;4.20;;;;;;;11.03;nan;100509.47;5051353;28;20076;-62
2022/04/05 09:35:12;;;;;;;8.80;3.90;;;;;;;10.70;nan;100480.03;5050181;28;20053;-63
2022/04/05 09:37:40;;;;;;;8.70;4.03;;;;;;;11.28;nan;100526.88;5066548;28;20041;-63
2022/04/05 09:40:32;;;;;;;10.25;4.72;;;;;;;11.45;nan;100527.97;5051339;28;20044;-63
2022/04/05 09:43:17;;;;;;;10.52;4.95;;;;;;;11.42;nan;100555.31;5050052;28;20036;-63
2022/04/05 09:45:57;;;;;;;6.68;3.75;;;;;;;11.48;nan;100552.41;5049963;28;20032;-63
2022/04/05 09:48:25;;;;;;;12.60;4.15;;;;;;;11.32;nan;100521.50;5051486;28;20043;-62
2022/04/05 09:51:10;;;;;;;10.52;3.95;;;;;;;11.43;nan;100538.59;5049623;28;20078;-62
2022/04/05 09:53:38;;;;;;;8.80;3.97;;;;;;;11.36;nan;100542.38;5050674;28;20057;-62
2022/04/05 09:56:09;;;;;;;8.85;4.25;;;;;;;11.21;nan;100549.09;5051491;28;20037;-63
2022/04/05 09:58:36;;;;;;;5.85;3.65;;;;;;;11.09;nan;100546.94;5049468;28;20028;-63
2022/04/05 10:01:06;;;;;;;7.93;3.70;;;;;;;11.14;nan;100538.88;5049316;28;20120;-63
2022/04/05 10:03:31;;;;;;;7.97;4.32;;;;;;;10.80;nan;100484.03;5050979;28;20068;-63
2022/04/05 10:05:57;;;;;;;7.97;4.55;;;;;;;10.92;nan;100503.75;5032910;28;20079;-64
2022/04/05 10:08:23;;;;;;;6.97;3.42;;;;;;;11.13;nan;100532.75;5050567;28;20024;-64
2022/04/05 10:10:48;;;;;;;6.90;3.88;;;;;;;11.13;nan;100522.22;5051257;28;20040;-63
2022/04/05 10:13:14;;;;;;;7.93;4.18;;;;;;;11.21;nan;100517.50;5050507;28;20028;-63
2022/04/05 10:15:39;;;;;;;9.73;3.85;;;;;;;11.51;nan;100536.47;5049320;28;20029;-63
2022/04/05 10:18:06;;;;;;;9.38;3.88;;;;;;;11.67;nan;100539.34;5049332;28;20509;-63
2022/04/05 10:20:33;;;;;;;6.45;3.72;;;;;;;11.56;nan;100473.00;5049360;28;20033;-64
2022/04/05 10:23:02;;;;;;;9.63;5.00;;;;;;;12.23;nan;100545.72;5050369;28;20039;-64
2022/04/05 10:25:29;;;;;;;9.45;3.78;;;;;;;12.13;nan;100469.69;5049325;28;20037;-65
2022/04/05 10:27:54;;;;;;;8.55;4.40;;;;;;;12.88;nan;100547.19;5050312;28;20029;-63
2022/04/05 10:30:34;;;;;;;8.20;4.00;;;;;;;12.67;nan;100538.47;5050353;28;20048;-64
2022/04/05 10:33:14;;;;;;;7.75;3.83;;;;;;;12.74;nan;100562.81;5049149;28;20064;-65
2022/04/05 10:35:52;;;;;;;6.75;3.97;;;;;;;12.52;nan;100527.75;5049015;28;20056;-65
2022/04/05 10:38:18;;;;;;;5.95;3.60;;;;;;;12.63;nan;100565.09;5049110;28;20033;-64
2022/04/05 10:41:14;;;;;;;5.85;3.70;;;;;;;12.70;nan;100554.16;5038142;28;20041;-64
2022/04/05 10:43:40;;;;;;;7.00;3.72;;;;;;;11.87;nan;100430.41;5028891;28;20029;-66
2022/04/05 10:46:06;;;;;;;6.70;4.13;;;;;;;12.56;nan;100547.78;5030538;28;20071;-66
2022/04/05 10:48:32;;;;;;;7.45;4.25;;;;;;;12.61;nan;100564.31;5029146;28;20486;-65
2022/04/05 10:51:00;;;;;;;8.90;3.70;;;;;;;12.51;nan;100529.53;5045462;28;20088;-65
2022/04/05 10:53:33;;;;;;;6.88;4.40;;;;;;;12.52;nan;100527.75;5030617;28;20068;-65
2022/04/05 10:56:04;;;;;;;6.53;4.47;;;;;;;12.67;nan;100556.09;5030447;28;20493;-66
2022/04/05 10:58:48;;;;;;;8.30;4.07;;;;;;;12.66;nan;100549.09;5029163;28;20128;-67
2022/04/05 11:01:24;;;;;;;8.65;4.50;;;;;;;12.26;nan;100503.38;5030397;28;20069;-64
2022/04/05 11:04:20;;;;;;;7.70;4.43;;;;;;;12.53;nan;100555.84;5032487;28;20045;-65
2022/04/05 11:07:07;;;;;;;11.52;4.95;;;;;;;12.61;nan;100551.94;5033828;28;20029;-65
2022/04/05 11:09:44;;;;;;;10.07;4.68;;;;;;;12.55;nan;100533.72;5034094;28;20048;-65
2022/04/05 11:12:19;;;;;;;8.30;4.38;;;;;;;12.63;nan;100544.81;5033736;28;20081;-65
2022/04/05 11:14:49;;;;;;;9.93;4.97;;;;;;;12.61;nan;100546.66;5049062;28;20041;-65
2022/04/05 11:17:17;;;;;;;6.93;4.40;;;;;;;12.45;nan;100478.78;5032462;28;20033;-66
2022/04/05 11:19:44;;;;;;;6.45;4.50;;;;;;;13.03;nan;100543.84;5032552;28;20029;-65
2022/04/05 11:22:22;;;;;;;7.60;4.10;;;;;;;13.19;nan;100542.19;5033853;28;20048;-66
2022/04/05 11:24:55;;;;;;;8.25;4.35;;;;;;;13.02;nan;100493.72;5033651;28;20098;-66
2022/04/05 11:27:25;;;;;;;7.32;4.65;;;;;;;13.23;nan;100554.34;5032508;28;20037;-65
2022/04/05 11:30:28;;;;;;;5.20;4.20;;;;;;;13.18;nan;100547.56;5033749;28;20034;-64
2022/04/05 11:33:06;;;;;;;7.45;4.18;;;;;;;12.90;nan;100562.03;5033421;28;20025;-64
2022/04/05 11:35:34;;;;;;;6.45;4.43;;;;;;;12.34;nan;100500.41;5032217;28;20049;-66
2022/04/05 11:37:59;;;;;;;7.30;4.47;;;;;;;12.27;nan;100530.63;5033296;28;20466;-66
2022/04/05 11:40:24;;;;;;;12.25;5.63;;;;;;;11.97;nan;100510.84;5032100;28;20116;-65